createdAt,value
2023-05-09T00:00:43.724Z,3.30
2023-05-09T00:01:43.765Z,3.40
2023-05-09T00:02:43.774Z,3.30
2023-05-09T00:03:43.808Z,3.40
2023-05-09T00:04:43.938Z,3.70
2023-05-09T00:05:43.876Z,3.20
2023-05-09T00:06:43.899Z,3.20
2023-05-09T00:07:43.924Z,3.40
2023-05-09T00:08:43.618Z,3.50
2023-05-09T00:09:44.016Z,3.40
2023-05-09T00:10:43.909Z,3.30
2023-05-09T00:11:44.056Z,3.20
2023-05-09T00:12:43.832Z,3.50
2023-05-09T00:13:43.847Z,3.50
2023-05-09T00:14:43.540Z,3.30
2023-05-09T00:15:43.552Z,3.50
2023-05-09T00:16:43.546Z,3.40
2023-05-09T00:17:43.550Z,3.50
2023-05-09T00:18:44.246Z,3.90
2023-05-09T00:19:43.680Z,3.50
2023-05-09T00:20:44.165Z,3.70
2023-05-09T00:21:43.478Z,3.40
2023-05-09T00:22:44.068Z,3.60
2023-05-09T00:23:43.451Z,4.00
2023-05-09T00:24:43.434Z,3.30
2023-05-09T00:25:43.431Z,3.80
2023-05-09T00:26:43.390Z,3.60
2023-05-09T00:27:43.438Z,3.80
2023-05-09T00:28:43.398Z,3.50
2023-05-09T00:29:43.371Z,4.10
2023-05-09T00:30:43.341Z,3.40
2023-05-09T00:31:43.369Z,3.60
2023-05-09T00:32:43.328Z,3.60
2023-05-09T00:33:43.345Z,3.70
2023-05-09T00:34:43.417Z,3.70
2023-05-09T00:35:43.315Z,3.80
2023-05-09T00:36:43.276Z,3.50
2023-05-09T00:37:43.294Z,3.60
2023-05-09T00:38:43.295Z,4.10
2023-05-09T00:39:43.292Z,3.80
2023-05-09T00:40:43.233Z,3.40
2023-05-09T00:41:43.246Z,3.80
2023-05-09T00:42:43.224Z,3.70
2023-05-09T00:43:43.433Z,3.90
2023-05-09T00:44:43.429Z,3.90
2023-05-09T00:45:43.464Z,3.50
2023-05-09T00:46:43.158Z,3.90
2023-05-09T00:47:43.250Z,3.60
2023-05-09T00:48:43.155Z,3.70
2023-05-09T00:49:43.149Z,4.10
2023-05-09T00:50:43.282Z,4.60
2023-05-09T00:51:43.119Z,4.10
2023-05-09T00:52:43.182Z,4.80
2023-05-09T00:53:43.104Z,4.10
2023-05-09T00:54:43.059Z,3.50
2023-05-09T00:55:43.071Z,3.80
2023-05-09T00:56:43.045Z,3.90
2023-05-09T00:57:43.045Z,4.70
2023-05-09T00:58:43.432Z,3.70
2023-05-09T00:59:43.046Z,4.30
2023-05-09T01:00:43.439Z,3.70
2023-05-09T01:01:43.014Z,4.20
2023-05-09T01:02:43.026Z,4.50
2023-05-09T01:03:43.131Z,4.30
2023-05-09T01:04:42.946Z,4.30
2023-05-09T01:05:42.951Z,4.20
2023-05-09T01:06:43.018Z,3.90
2023-05-09T01:07:43.451Z,4.80
2023-05-09T01:08:42.933Z,4.50
2023-05-09T01:09:42.898Z,4.80
2023-05-09T01:10:42.888Z,4.30
2023-05-09T01:11:42.881Z,4.50
2023-05-09T01:12:42.875Z,4.30
2023-05-09T01:13:42.857Z,4.40
2023-05-09T01:14:42.855Z,4.90
2023-05-09T01:15:42.866Z,4.80
2023-05-09T01:16:42.989Z,4.20
2023-05-09T01:17:42.817Z,4.70
2023-05-09T01:18:42.794Z,4.30
2023-05-09T01:19:42.781Z,4.80
2023-05-09T01:20:42.767Z,4.60
2023-05-09T01:21:42.761Z,4.10
2023-05-09T01:22:42.735Z,4.50
2023-05-09T01:23:42.740Z,4.50
2023-05-09T01:24:43.110Z,4.10
2023-05-09T01:25:42.724Z,5.10
2023-05-09T01:26:42.710Z,4.40
2023-05-09T01:27:42.691Z,4.80
2023-05-09T01:28:42.664Z,4.40
2023-05-09T01:29:43.179Z,5.10
2023-05-09T01:30:42.956Z,4.20
2023-05-09T01:31:42.737Z,4.60
2023-05-09T01:32:42.849Z,4.80
2023-05-09T01:33:42.621Z,4.20
2023-05-09T01:34:42.586Z,4.10
2023-05-09T01:35:42.805Z,4.00
2023-05-09T01:36:42.582Z,4.10
2023-05-09T01:37:42.584Z,4.40
2023-05-09T01:38:42.614Z,4.20
2023-05-09T01:39:42.893Z,4.20
2023-05-09T01:40:42.917Z,4.30
2023-05-09T01:41:42.955Z,4.80
2023-05-09T01:42:42.498Z,4.30
2023-05-09T01:43:42.518Z,4.60
2023-05-09T01:44:42.653Z,4.20
2023-05-09T01:45:42.487Z,5.00
2023-05-09T01:46:42.482Z,4.40
2023-05-09T01:47:42.508Z,5.30
2023-05-09T01:48:42.483Z,4.20
2023-05-09T01:49:42.431Z,4.50
2023-05-09T01:50:42.414Z,5.00
2023-05-09T01:51:43.842Z,4.40
2023-05-09T01:52:42.392Z,4.30
2023-05-09T01:53:42.396Z,4.40
2023-05-09T01:54:42.367Z,4.90
2023-05-09T01:55:42.383Z,4.30
2023-05-09T01:56:42.344Z,4.90
2023-05-09T01:57:42.492Z,4.90
2023-05-09T01:58:42.321Z,5.00
2023-05-09T01:59:42.486Z,4.50
2023-05-09T02:00:42.309Z,4.70
2023-05-09T02:01:42.295Z,4.20
2023-05-09T02:02:42.481Z,4.80
2023-05-09T02:03:42.284Z,4.50
2023-05-09T02:04:42.515Z,4.40
2023-05-09T02:05:42.245Z,4.10
2023-05-09T02:06:42.222Z,4.20
2023-05-09T02:07:42.237Z,4.00
2023-05-09T02:08:42.206Z,4.20
2023-05-09T02:09:42.188Z,4.20
2023-05-09T02:10:42.174Z,4.20
2023-05-09T02:11:42.414Z,5.50
2023-05-09T02:12:42.422Z,4.50
2023-05-09T02:13:42.148Z,4.50
2023-05-09T02:14:42.135Z,5.00
2023-05-09T02:15:42.131Z,4.50
2023-05-09T02:16:42.123Z,4.70
2023-05-09T02:17:42.126Z,5.00
2023-05-09T02:18:42.101Z,4.50
2023-05-09T02:19:42.082Z,4.10
2023-05-09T02:20:42.114Z,4.80
2023-05-09T02:21:42.056Z,4.10
2023-05-09T02:22:42.037Z,4.10
2023-05-09T02:23:42.085Z,4.10
2023-05-09T02:24:42.000Z,4.30
2023-05-09T02:25:42.003Z,4.70
2023-05-09T02:26:41.978Z,4.30
2023-05-09T02:27:42.365Z,4.40
2023-05-09T02:28:41.975Z,4.50
2023-05-09T02:29:41.956Z,4.10
2023-05-09T02:30:41.939Z,4.10
2023-05-09T02:31:41.950Z,4.80
2023-05-09T02:32:41.939Z,5.00
2023-05-09T02:33:41.933Z,4.60
2023-05-09T02:34:41.909Z,4.50
2023-05-09T02:35:41.880Z,4.60
2023-05-09T02:36:42.050Z,4.10
2023-05-09T02:37:41.849Z,4.70
2023-05-09T02:38:41.860Z,4.60
2023-05-09T02:39:41.821Z,4.30
2023-05-09T02:40:41.829Z,5.00
2023-05-09T02:41:41.799Z,4.60
2023-05-09T02:42:42.127Z,4.70
2023-05-09T02:43:41.815Z,4.40
2023-05-09T02:44:42.153Z,4.40
2023-05-09T02:45:41.783Z,4.90
2023-05-09T02:46:41.765Z,5.00
2023-05-09T02:47:41.750Z,5.50
2023-05-09T02:48:41.824Z,4.40
2023-05-09T02:49:41.702Z,4.60
2023-05-09T02:50:42.232Z,4.70
2023-05-09T02:51:42.198Z,5.10
2023-05-09T02:52:42.286Z,5.00
2023-05-09T02:53:41.671Z,4.80
2023-05-09T02:54:42.296Z,4.70
2023-05-09T02:55:41.640Z,4.50
2023-05-09T02:56:41.649Z,4.90
2023-05-09T02:57:42.353Z,4.60
2023-05-09T02:58:41.610Z,4.80
2023-05-09T02:59:42.346Z,4.90
2023-05-09T03:00:41.920Z,5.10
2023-05-09T03:01:42.413Z,5.20
2023-05-09T03:02:41.634Z,5.50
2023-05-09T03:03:41.961Z,4.60
2023-05-09T03:04:41.536Z,5.10
2023-05-09T03:05:41.524Z,4.90
2023-05-09T03:06:41.524Z,4.70
2023-05-09T03:07:41.491Z,4.60
2023-05-09T03:08:41.553Z,4.90
2023-05-09T03:09:41.514Z,4.40
2023-05-09T03:10:41.467Z,4.90
2023-05-09T03:11:41.440Z,5.00
2023-05-09T03:12:41.476Z,4.40
2023-05-09T03:13:41.431Z,4.50
2023-05-09T03:14:41.437Z,4.40
2023-05-09T03:15:41.596Z,4.80
2023-05-09T03:16:41.394Z,4.40
2023-05-09T03:17:41.377Z,4.80
2023-05-09T03:18:41.394Z,4.40
2023-05-09T03:19:41.362Z,4.40
2023-05-09T03:20:41.347Z,4.50
2023-05-09T03:21:41.333Z,5.10
2023-05-09T03:22:41.334Z,4.90
2023-05-09T03:23:41.314Z,5.50
2023-05-09T03:24:41.341Z,5.20
2023-05-09T03:25:41.288Z,4.80
2023-05-09T03:26:41.289Z,5.00
2023-05-09T03:27:41.254Z,5.30
2023-05-09T03:28:41.253Z,5.70
2023-05-09T03:29:41.285Z,4.90
2023-05-09T03:30:41.567Z,5.30
2023-05-09T03:31:41.608Z,5.70
2023-05-09T03:32:41.363Z,5.40
2023-05-09T03:33:41.201Z,5.20
2023-05-09T03:34:41.177Z,4.90
2023-05-09T03:35:41.160Z,4.60
2023-05-09T03:36:41.163Z,5.60
2023-05-09T03:37:41.163Z,5.20
2023-05-09T03:38:41.153Z,5.50
2023-05-09T03:39:41.341Z,5.20
2023-05-09T03:40:41.576Z,5.00
2023-05-09T03:41:41.089Z,4.80
2023-05-09T03:42:41.089Z,5.60
2023-05-09T03:43:41.077Z,4.80
2023-05-09T03:44:41.087Z,4.80
2023-05-09T03:45:41.036Z,4.50
2023-05-09T03:46:41.079Z,5.20
2023-05-09T03:47:41.069Z,4.50
2023-05-09T03:48:41.065Z,4.50
2023-05-09T03:49:41.080Z,4.50
2023-05-09T03:50:41.004Z,4.90
2023-05-09T03:51:42.160Z,4.50
2023-05-09T03:52:40.972Z,4.90
2023-05-09T03:53:40.960Z,4.40
2023-05-09T03:54:40.954Z,4.90
2023-05-09T03:55:41.049Z,4.70
2023-05-09T03:56:40.931Z,4.90
2023-05-09T03:57:40.891Z,4.50
2023-05-09T03:58:40.911Z,5.10
2023-05-09T03:59:40.898Z,4.90
2023-05-09T04:00:40.897Z,4.80
2023-05-09T04:01:40.922Z,4.80
2023-05-09T04:02:40.917Z,4.60
2023-05-09T04:03:41.361Z,5.00
2023-05-09T04:04:41.104Z,4.50
2023-05-09T04:05:40.813Z,5.20
2023-05-09T04:06:40.845Z,4.60
2023-05-09T04:07:41.314Z,5.30
2023-05-09T04:08:40.795Z,4.70
2023-05-09T04:09:40.791Z,5.10
2023-05-09T04:10:41.178Z,4.70
2023-05-09T04:11:40.783Z,5.40
2023-05-09T04:12:41.443Z,5.50
2023-05-09T04:13:40.810Z,5.20
2023-05-09T04:14:40.716Z,4.80
2023-05-09T04:15:40.733Z,4.90
2023-05-09T04:16:41.197Z,4.90
2023-05-09T04:17:40.722Z,4.80
2023-05-09T04:18:41.426Z,4.80
2023-05-09T04:19:41.161Z,5.20
2023-05-09T04:20:41.490Z,4.90
2023-05-09T04:21:40.624Z,5.30
2023-05-09T04:22:40.621Z,5.00
2023-05-09T04:23:40.601Z,4.80
2023-05-09T04:24:40.608Z,4.50
2023-05-09T04:25:40.605Z,4.90
2023-05-09T04:26:40.581Z,4.80
2023-05-09T04:27:40.565Z,4.90
2023-05-09T04:28:40.627Z,5.00
2023-05-09T04:29:40.525Z,4.90
2023-05-09T04:30:40.652Z,5.20
2023-05-09T04:31:40.693Z,5.30
2023-05-09T04:32:40.545Z,4.50
2023-05-09T04:33:40.474Z,5.60
2023-05-09T04:34:40.580Z,4.60
2023-05-09T04:35:40.624Z,5.10
2023-05-09T04:36:40.629Z,4.40
2023-05-09T04:37:40.586Z,4.90
2023-05-09T04:38:40.639Z,4.60
2023-05-09T04:39:40.414Z,5.00
2023-05-09T04:40:40.424Z,4.50
2023-05-09T04:41:40.387Z,4.60
2023-05-09T04:42:40.393Z,4.90
2023-05-09T04:43:40.543Z,4.50
2023-05-09T04:44:40.581Z,4.60
2023-05-09T04:45:40.358Z,4.80
2023-05-09T04:46:40.673Z,4.90
2023-05-09T04:47:40.410Z,5.40
2023-05-09T04:48:40.316Z,4.40
2023-05-09T04:49:40.297Z,4.80
2023-05-09T04:50:40.640Z,4.60
2023-05-09T04:51:40.625Z,5.50
2023-05-09T04:52:40.276Z,5.50
2023-05-09T04:53:40.246Z,4.40
2023-05-09T04:54:40.255Z,4.90
2023-05-09T04:55:40.238Z,5.20
2023-05-09T04:56:40.226Z,4.80
2023-05-09T04:57:40.197Z,4.90
2023-05-09T04:58:40.637Z,5.00
2023-05-09T04:59:40.623Z,5.00
2023-05-09T05:00:40.186Z,4.80
2023-05-09T05:01:40.229Z,4.50
2023-05-09T05:02:40.224Z,4.70
2023-05-09T05:03:40.127Z,4.60
2023-05-09T05:04:40.175Z,4.60
2023-05-09T05:05:40.218Z,4.80
2023-05-09T05:06:40.130Z,4.50
2023-05-09T05:07:40.142Z,5.20
2023-05-09T05:08:40.087Z,4.50
2023-05-09T05:09:40.054Z,4.40
2023-05-09T05:10:40.067Z,4.70
2023-05-09T05:11:41.532Z,5.00
2023-05-09T05:12:41.052Z,4.90
2023-05-09T05:13:40.009Z,4.70
2023-05-09T05:14:40.031Z,5.30
2023-05-09T05:15:40.250Z,4.50
2023-05-09T05:16:40.034Z,4.90
2023-05-09T05:17:39.980Z,4.70
2023-05-09T05:18:39.963Z,4.60
2023-05-09T05:19:39.929Z,4.70
2023-05-09T05:20:39.942Z,5.00
2023-05-09T05:21:39.914Z,4.80
2023-05-09T05:22:39.928Z,5.30
2023-05-09T05:23:40.356Z,4.80
2023-05-09T05:24:39.889Z,4.90
2023-05-09T05:25:39.873Z,5.50
2023-05-09T05:26:39.882Z,5.10
2023-05-09T05:27:39.859Z,5.00
2023-05-09T05:28:39.846Z,4.40
2023-05-09T05:29:39.815Z,5.40
2023-05-09T05:30:39.825Z,4.80
2023-05-09T05:31:40.060Z,4.70
2023-05-09T05:32:39.822Z,4.80
2023-05-09T05:33:39.783Z,4.50
2023-05-09T05:34:39.836Z,5.10
2023-05-09T05:35:39.748Z,4.70
2023-05-09T05:36:39.752Z,5.50
2023-05-09T05:37:39.734Z,4.90
2023-05-09T05:38:39.759Z,5.40
2023-05-09T05:39:39.907Z,5.00
2023-05-09T05:40:39.698Z,5.00
2023-05-09T05:41:39.797Z,6.70
2023-05-09T05:42:39.672Z,5.90
2023-05-09T05:43:39.661Z,5.90
2023-05-09T05:44:39.664Z,5.70
2023-05-09T05:45:39.702Z,5.40
2023-05-09T05:46:39.627Z,5.50
2023-05-09T05:47:39.691Z,5.60
2023-05-09T05:48:39.630Z,5.20
2023-05-09T05:49:39.575Z,4.90
2023-05-09T05:50:39.585Z,4.90
2023-05-09T05:51:39.551Z,5.40
2023-05-09T05:52:39.577Z,5.00
2023-05-09T05:53:39.540Z,5.60
2023-05-09T05:54:39.545Z,5.20
2023-05-09T05:55:39.497Z,5.20
2023-05-09T05:56:39.509Z,5.00
2023-05-09T05:57:39.496Z,5.00
2023-05-09T05:58:39.504Z,4.60
2023-05-09T05:59:39.461Z,5.20
2023-05-09T06:00:39.474Z,5.10
2023-05-09T06:01:39.451Z,5.70
2023-05-09T06:02:39.486Z,5.00
2023-05-09T06:03:39.508Z,5.20
2023-05-09T06:04:39.413Z,5.20
2023-05-09T06:05:39.389Z,5.60
2023-05-09T06:06:39.405Z,6.00
2023-05-09T06:07:39.813Z,5.80
2023-05-09T06:08:39.405Z,5.10
2023-05-09T06:09:39.338Z,4.70
2023-05-09T06:10:39.353Z,5.60
2023-05-09T06:11:39.308Z,5.10
2023-05-09T06:12:39.357Z,6.00
2023-05-09T06:13:39.311Z,6.10
2023-05-09T06:14:39.295Z,6.50
2023-05-09T06:15:39.267Z,5.50
2023-05-09T06:16:39.290Z,5.90
2023-05-09T06:17:39.279Z,5.50
2023-05-09T06:18:39.261Z,5.30
2023-05-09T06:19:39.230Z,5.30
2023-05-09T06:20:39.234Z,5.30
2023-05-09T06:21:39.200Z,4.90
2023-05-09T06:22:39.200Z,5.20
2023-05-09T06:23:42.619Z,5.50
2023-05-09T06:24:40.170Z,5.50
2023-05-09T06:25:39.162Z,5.10
2023-05-09T06:26:39.221Z,5.90
2023-05-09T06:27:39.130Z,4.90
2023-05-09T06:28:39.132Z,5.60
2023-05-09T06:29:39.118Z,5.60
2023-05-09T06:30:39.113Z,5.20
2023-05-09T06:31:39.356Z,6.10
2023-05-09T06:32:39.090Z,5.60
2023-05-09T06:33:39.080Z,5.20
2023-05-09T06:34:39.078Z,5.10
2023-05-09T06:35:39.034Z,5.20
2023-05-09T06:36:39.043Z,5.80
2023-05-09T06:37:39.016Z,4.80
2023-05-09T06:38:39.030Z,5.20
2023-05-09T06:39:38.986Z,5.10
2023-05-09T06:40:38.991Z,4.50
2023-05-09T06:41:38.969Z,4.90
2023-05-09T06:42:38.975Z,4.30
2023-05-09T06:43:38.942Z,4.40
2023-05-09T06:44:39.303Z,5.50
2023-05-09T06:45:38.974Z,5.50
2023-05-09T06:46:39.023Z,5.20
2023-05-09T06:47:39.493Z,4.60
2023-05-09T06:48:38.948Z,5.10
2023-05-09T06:49:38.898Z,5.10
2023-05-09T06:50:38.860Z,4.90
2023-05-09T06:51:38.884Z,4.90
2023-05-09T06:52:39.541Z,5.70
2023-05-09T06:53:38.883Z,4.60
2023-05-09T06:54:38.833Z,4.70
2023-05-09T06:55:38.842Z,5.40
2023-05-09T06:56:39.565Z,5.60
2023-05-09T06:57:38.802Z,4.40
2023-05-09T06:58:38.962Z,4.70
2023-05-09T06:59:38.806Z,4.80
2023-05-09T07:00:38.776Z,4.90
2023-05-09T07:01:38.772Z,5.30
2023-05-09T07:02:38.788Z,5.70
2023-05-09T07:03:38.749Z,5.40
2023-05-09T07:04:38.799Z,5.20
2023-05-09T07:05:38.726Z,4.70
2023-05-09T07:06:38.686Z,4.30
2023-05-09T07:07:38.725Z,4.70
2023-05-09T07:08:38.762Z,5.00
2023-05-09T07:09:38.687Z,4.20
2023-05-09T07:10:38.672Z,4.80
2023-05-09T07:11:38.663Z,4.60
2023-05-09T07:12:39.253Z,4.10
2023-05-09T07:13:38.660Z,3.80
2023-05-09T07:14:38.675Z,4.30
2023-05-09T07:15:42.467Z,4.20
2023-05-09T07:16:38.770Z,3.60
2023-05-09T07:17:38.663Z,3.60
2023-05-09T07:18:38.585Z,3.20
2023-05-09T07:19:38.590Z,3.20
2023-05-09T07:20:38.522Z,3.90
2023-05-09T07:21:38.571Z,3.90
2023-05-09T07:22:38.530Z,3.30
2023-05-09T07:23:38.515Z,4.10
2023-05-09T07:24:38.748Z,3.50
2023-05-09T07:25:38.492Z,3.30
2023-05-09T07:26:38.461Z,3.40
2023-05-09T07:27:38.451Z,3.30
2023-05-09T07:28:38.431Z,3.60
2023-05-09T07:29:38.460Z,3.60
2023-05-09T07:30:38.404Z,3.60
2023-05-09T07:31:38.443Z,3.80
2023-05-09T07:32:38.390Z,3.30
2023-05-09T07:33:38.400Z,3.50
2023-05-09T07:34:38.370Z,2.90
2023-05-09T07:35:38.372Z,3.00
2023-05-09T07:37:38.333Z,2.90
2023-05-09T07:38:38.326Z,3.20
2023-05-09T07:39:38.308Z,3.10
2023-05-09T07:40:38.748Z,3.20
2023-05-09T07:41:38.282Z,3.10
2023-05-09T07:42:38.261Z,2.90
2023-05-09T07:43:38.294Z,2.70
2023-05-09T07:44:38.243Z,2.60
2023-05-09T07:45:38.264Z,2.70
2023-05-09T07:46:38.210Z,2.40
2023-05-09T07:47:38.273Z,2.40
2023-05-09T07:48:38.198Z,2.20
2023-05-09T07:49:38.185Z,2.40
2023-05-09T07:50:38.185Z,2.10
2023-05-09T07:51:38.175Z,1.90
2023-05-09T07:52:38.133Z,1.90
2023-05-09T07:53:38.148Z,2.10
2023-05-09T07:54:38.111Z,1.70
2023-05-09T07:55:38.132Z,2.10
2023-05-09T07:56:38.081Z,2.20
2023-05-09T07:57:38.091Z,1.90
2023-05-09T07:58:38.108Z,2.30
2023-05-09T07:59:38.062Z,1.90
2023-05-09T08:00:38.051Z,2.20
2023-05-09T08:01:38.057Z,1.80
2023-05-09T08:02:38.137Z,2.10
2023-05-09T08:03:38.127Z,1.90
2023-05-09T08:04:38.020Z,1.70
2023-05-09T08:05:38.001Z,1.90
2023-05-09T08:06:38.562Z,2.40
2023-05-09T08:07:37.985Z,1.60
2023-05-09T08:08:39.062Z,1.50
2023-05-09T08:09:37.984Z,1.80
2023-05-09T08:10:37.963Z,1.70
2023-05-09T08:11:37.929Z,1.50
2023-05-09T08:12:37.898Z,1.40
2023-05-09T08:13:37.940Z,1.70
2023-05-09T08:14:37.881Z,1.70
2023-05-09T08:15:37.980Z,1.70
2023-05-09T08:16:37.954Z,1.90
2023-05-09T08:17:37.905Z,1.90
2023-05-09T08:18:37.845Z,2.10
2023-05-09T08:19:37.830Z,2.40
2023-05-09T08:20:37.828Z,1.80
2023-05-09T08:21:37.834Z,1.70
2023-05-09T08:22:37.784Z,1.90
2023-05-09T08:23:37.791Z,1.60
2023-05-09T08:24:37.795Z,1.60
2023-05-09T08:25:37.782Z,1.60
2023-05-09T08:26:37.799Z,1.90
2023-05-09T08:27:37.751Z,2.00
2023-05-09T08:28:37.744Z,1.90
2023-05-09T08:29:37.740Z,1.50
2023-05-09T08:30:37.715Z,1.80
2023-05-09T08:31:37.757Z,2.00
2023-05-09T08:32:37.709Z,2.00
2023-05-09T08:33:39.330Z,1.90
2023-05-09T08:34:37.672Z,2.10
2023-05-09T08:35:37.672Z,2.00
2023-05-09T08:36:37.648Z,2.40
2023-05-09T08:37:37.625Z,2.00
2023-05-09T08:38:37.630Z,1.90
2023-05-09T08:39:37.627Z,2.20
2023-05-09T08:40:37.584Z,2.00
2023-05-09T08:41:37.585Z,1.90
2023-05-09T08:42:37.571Z,1.70
2023-05-09T08:43:37.571Z,1.80
2023-05-09T08:44:37.556Z,2.60
2023-05-09T08:45:37.532Z,2.30
2023-05-09T08:46:37.538Z,2.30
2023-05-09T08:47:37.596Z,2.50
2023-05-09T08:50:28.764Z,2.80
2023-05-09T08:51:28.490Z,2.40
2023-05-09T08:52:28.814Z,2.50
2023-05-09T08:53:28.402Z,2.20
2023-05-09T08:54:28.407Z,2.20
2023-05-09T08:55:28.388Z,2.90
2023-05-09T08:56:28.348Z,2.10
2023-05-09T08:57:28.357Z,2.10
2023-05-09T08:58:28.326Z,2.30
2023-05-09T08:59:28.349Z,2.00
2023-05-09T09:00:28.554Z,1.80
2023-05-09T09:01:28.332Z,2.40
2023-05-09T09:02:28.323Z,2.10
2023-05-09T09:03:28.322Z,1.70
2023-05-09T09:04:28.287Z,1.70
2023-05-09T09:05:40.739Z,1.60
2023-05-09T09:06:29.258Z,1.70
2023-05-09T09:07:30.536Z,1.60
2023-05-09T09:08:28.251Z,1.70
2023-05-09T09:09:28.205Z,1.70
2023-05-09T09:10:28.198Z,1.40
2023-05-09T09:11:28.178Z,1.30
2023-05-09T09:12:28.158Z,1.50
2023-05-09T09:13:28.277Z,1.40
2023-05-09T09:14:28.163Z,1.40
2023-05-09T09:15:28.143Z,1.50
2023-05-09T09:16:28.178Z,1.70
2023-05-09T09:17:28.271Z,1.50
2023-05-09T09:18:28.119Z,1.50
2023-05-09T09:19:28.108Z,1.90
2023-05-09T09:20:28.066Z,2.30
2023-05-09T09:21:28.065Z,2.10
2023-05-09T09:22:28.041Z,1.90
2023-05-09T09:23:28.072Z,2.10
2023-05-09T09:24:28.017Z,2.00
2023-05-09T09:25:28.026Z,2.20
2023-05-09T09:26:28.023Z,2.30
2023-05-09T09:27:28.000Z,3.20
2023-05-09T09:28:27.972Z,2.20
2023-05-09T09:29:28.024Z,1.60
2023-05-09T09:30:27.969Z,1.60
2023-05-09T09:31:27.984Z,1.60
2023-05-09T09:32:27.994Z,1.60
2023-05-09T09:33:27.970Z,1.60
2023-05-09T09:34:27.923Z,1.60
2023-05-09T09:35:27.901Z,2.30
2023-05-09T09:36:27.879Z,1.40
2023-05-09T09:37:27.908Z,1.50
2023-05-09T09:38:27.862Z,1.30
2023-05-09T09:39:27.857Z,1.60
2023-05-09T09:40:27.846Z,1.50
2023-05-09T09:41:27.842Z,1.30
2023-05-09T09:42:27.847Z,1.40
2023-05-09T09:43:27.801Z,1.40
2023-05-09T09:44:27.817Z,1.70
2023-05-09T09:45:27.817Z,1.70
2023-05-09T09:46:27.797Z,2.00
2023-05-09T09:47:27.781Z,2.10
2023-05-09T09:48:27.760Z,1.60
2023-05-09T09:49:27.753Z,1.90
2023-05-09T09:50:27.715Z,2.10
2023-05-09T09:51:27.717Z,1.50
2023-05-09T09:52:27.699Z,1.30
2023-05-09T09:53:27.728Z,1.10
2023-05-09T09:54:27.771Z,1.30
2023-05-09T09:55:27.775Z,1.60
2023-05-09T09:56:27.681Z,1.30
2023-05-09T09:57:27.636Z,1.30
2023-05-09T09:58:27.657Z,1.20
2023-05-09T09:59:27.620Z,1.10
2023-05-09T10:00:27.638Z,1.40
2023-05-09T10:01:27.634Z,1.10
2023-05-09T10:02:27.630Z,1.20
2023-05-09T10:03:27.844Z,1.20
2023-05-09T10:04:27.573Z,1.10
2023-05-09T10:05:27.544Z,1.20
2023-05-09T10:06:27.548Z,1.10
2023-05-09T10:07:27.513Z,1.10
2023-05-09T10:08:27.551Z,1.30
2023-05-09T10:09:27.495Z,1.20
2023-05-09T10:10:27.489Z,1.20
2023-05-09T10:11:27.481Z,1.50
2023-05-09T10:12:27.490Z,1.60
2023-05-09T10:13:27.515Z,1.40
2023-05-09T10:14:27.458Z,1.80
2023-05-09T10:15:28.711Z,1.80
2023-05-09T10:16:42.530Z,1.80
2023-05-09T10:17:28.570Z,1.90
2023-05-09T10:18:27.533Z,2.10
2023-05-09T10:19:27.385Z,2.10
2023-05-09T10:20:27.375Z,2.00
2023-05-09T10:21:27.356Z,2.10
2023-05-09T10:22:27.363Z,2.10
2023-05-09T10:23:27.336Z,2.00
2023-05-09T10:24:27.905Z,2.10
2023-05-09T10:25:27.331Z,2.20
2023-05-09T10:26:27.534Z,1.90
2023-05-09T10:27:27.279Z,2.00
2023-05-09T10:28:27.307Z,1.90
2023-05-09T10:29:27.289Z,2.10
2023-05-09T10:30:27.285Z,2.00
2023-05-09T10:31:27.282Z,2.10
2023-05-09T10:32:27.274Z,2.00
2023-05-09T10:33:27.445Z,2.40
2023-05-09T10:34:27.209Z,2.60
2023-05-09T10:35:27.171Z,2.20
2023-05-09T10:36:27.178Z,2.60
2023-05-09T10:37:27.173Z,2.50
2023-05-09T10:38:27.196Z,2.60
2023-05-09T10:39:27.149Z,2.40
2023-05-09T10:40:27.128Z,2.20
2023-05-09T10:41:27.137Z,2.20
2023-05-09T10:42:27.158Z,2.10
2023-05-09T10:43:27.130Z,2.10
2023-05-09T10:44:27.105Z,2.30
2023-05-09T10:45:27.081Z,2.20
2023-05-09T10:46:27.117Z,2.50
2023-05-09T10:47:27.105Z,2.10
2023-05-09T10:48:27.069Z,1.80
2023-05-09T10:49:27.025Z,2.40
2023-05-09T10:50:27.005Z,2.20
2023-05-09T10:51:27.011Z,2.20
2023-05-09T10:52:26.977Z,2.50
2023-05-09T10:53:27.738Z,2.90
2023-05-09T10:54:29.186Z,2.20
2023-05-09T10:55:26.951Z,2.40
2023-05-09T10:56:26.994Z,2.40
2023-05-09T10:57:26.931Z,2.40
2023-05-09T10:58:26.943Z,2.10
2023-05-09T10:59:26.898Z,2.40
2023-05-09T11:00:26.889Z,2.20
2023-05-09T11:01:26.927Z,2.20
2023-05-09T11:02:26.879Z,2.00
2023-05-09T11:03:26.949Z,2.20
2023-05-09T11:04:26.864Z,2.70
2023-05-09T11:05:26.824Z,2.80
2023-05-09T11:06:26.827Z,2.20
2023-05-09T11:07:26.832Z,3.00
2023-05-09T11:08:26.890Z,2.60
2023-05-09T11:09:26.776Z,2.30
2023-05-09T11:10:26.775Z,2.00
2023-05-09T11:11:26.754Z,2.30
2023-05-09T11:12:26.758Z,2.30
2023-05-09T11:13:26.762Z,2.10
2023-05-09T11:14:26.736Z,2.40
2023-05-09T11:15:26.733Z,2.10
2023-05-09T11:16:26.755Z,1.90
2023-05-09T11:17:26.713Z,2.60
2023-05-09T11:18:26.693Z,1.90
2023-05-09T11:19:26.695Z,2.10
2023-05-09T11:20:26.686Z,2.00
2023-05-09T11:21:26.664Z,2.20
2023-05-09T11:22:26.646Z,2.00
2023-05-09T11:23:26.635Z,1.90
2023-05-09T11:24:26.647Z,2.20
2023-05-09T11:25:26.586Z,2.00
2023-05-09T11:26:26.596Z,2.10
2023-05-09T11:27:26.569Z,1.70
2023-05-09T11:28:26.584Z,1.90
2023-05-09T11:29:26.545Z,2.00
2023-05-09T11:30:26.543Z,1.90
2023-05-09T11:31:26.602Z,2.10
2023-05-09T11:32:26.571Z,1.80
2023-05-09T11:33:26.651Z,1.80
2023-05-09T11:34:26.517Z,2.00
2023-05-09T11:35:26.485Z,2.10
2023-05-09T11:36:26.529Z,2.10
2023-05-09T11:37:26.447Z,1.90
2023-05-09T11:38:26.475Z,2.20
2023-05-09T11:39:26.448Z,2.00
2023-05-09T11:40:26.429Z,2.10
2023-05-09T11:41:26.421Z,1.90
2023-05-09T11:42:26.411Z,2.10
2023-05-09T11:43:26.406Z,1.60
2023-05-09T11:44:26.382Z,1.90
2023-05-09T11:45:26.360Z,2.00
2023-05-09T11:46:26.429Z,2.10
2023-05-09T11:47:26.428Z,2.50
2023-05-09T11:48:26.353Z,2.20
2023-05-09T11:49:26.322Z,2.10
2023-05-09T11:50:26.307Z,2.20
2023-05-09T11:51:26.291Z,1.80
2023-05-09T11:52:26.293Z,1.70
2023-05-09T11:53:26.957Z,1.90
2023-05-09T11:54:26.966Z,2.30
2023-05-09T11:55:26.973Z,2.10
2023-05-09T11:56:26.990Z,2.20
2023-05-09T11:57:26.219Z,1.90
2023-05-09T11:58:26.228Z,1.70
2023-05-09T11:59:26.243Z,2.20
2023-05-09T12:00:26.342Z,1.90
2023-05-09T12:01:26.170Z,2.20
2023-05-09T12:02:26.211Z,1.80
2023-05-09T12:03:26.299Z,1.70
2023-05-09T12:04:26.224Z,1.60
2023-05-09T12:05:26.120Z,1.60
2023-05-09T12:06:26.121Z,1.50
2023-05-09T12:07:26.546Z,1.50
2023-05-09T12:08:26.583Z,1.20
2023-05-09T12:09:26.646Z,1.30
2023-05-09T12:10:26.658Z,1.40
2023-05-09T12:11:26.734Z,1.30
2023-05-09T12:12:26.761Z,0.90
2023-05-09T12:13:26.081Z,0.90
2023-05-09T12:14:26.069Z,0.90
2023-05-09T12:15:26.100Z,1.20
2023-05-09T12:16:26.232Z,1.20
2023-05-09T12:17:26.008Z,1.20
2023-05-09T12:18:25.985Z,1.20
2023-05-09T12:19:25.993Z,1.20
2023-05-09T12:20:25.966Z,0.90
2023-05-09T12:21:25.967Z,1.20
2023-05-09T12:22:25.931Z,1.30
2023-05-09T12:23:25.921Z,1.10
2023-05-09T12:24:25.986Z,1.10
2023-05-09T12:25:25.925Z,1.10
2023-05-09T12:26:25.877Z,1.00
2023-05-09T12:27:25.877Z,1.10
2023-05-09T12:28:25.911Z,0.90
2023-05-09T12:29:25.848Z,0.90
2023-05-09T12:30:25.988Z,0.90
2023-05-09T12:31:25.844Z,1.00
2023-05-09T12:32:26.021Z,1.10
2023-05-09T12:33:26.000Z,1.10
2023-05-09T12:34:25.998Z,1.20
2023-05-09T12:35:25.816Z,1.10
2023-05-09T12:36:26.030Z,1.00
2023-05-09T12:37:25.755Z,1.10
2023-05-09T12:38:25.995Z,1.10
2023-05-09T12:39:25.988Z,1.10
2023-05-09T12:40:25.779Z,1.00
2023-05-09T12:42:25.722Z,1.20
2023-05-09T12:43:25.865Z,1.30
2023-05-09T12:44:25.775Z,1.10
2023-05-09T12:45:25.678Z,1.10
2023-05-09T12:46:25.814Z,1.10
2023-05-09T12:47:25.927Z,1.20
2023-05-09T12:48:25.906Z,1.20
2023-05-09T12:49:25.629Z,1.10
2023-05-09T12:50:25.662Z,1.20
2023-05-09T12:51:26.006Z,1.10
2023-05-09T12:52:25.608Z,1.30
2023-05-09T12:53:25.578Z,1.20
2023-05-09T12:54:25.673Z,1.20
2023-05-09T12:55:25.574Z,1.90
2023-05-09T12:56:25.605Z,1.20
2023-05-09T12:57:25.529Z,1.30
2023-05-09T12:58:25.544Z,1.20
2023-05-09T12:59:25.499Z,1.20
2023-05-09T13:00:25.559Z,1.10
2023-05-09T13:01:25.556Z,1.10
2023-05-09T13:02:25.533Z,1.70
2023-05-09T13:03:26.033Z,1.30
2023-05-09T13:04:25.522Z,1.00
2023-05-09T13:05:25.472Z,1.40
2023-05-09T13:06:25.465Z,1.40
2023-05-09T13:07:25.408Z,1.30
2023-05-09T13:08:25.420Z,1.40
2023-05-09T13:09:25.410Z,1.70
2023-05-09T13:10:25.409Z,1.10
2023-05-09T13:11:25.393Z,1.30
2023-05-09T13:12:26.291Z,1.30
2023-05-09T13:13:25.424Z,1.30
2023-05-09T13:14:25.336Z,1.20
2023-05-09T13:15:25.397Z,1.20
2023-05-09T13:16:25.481Z,1.40
2023-05-09T13:17:25.356Z,1.40
2023-05-09T13:18:26.138Z,1.50
2023-05-09T13:19:25.310Z,1.30
2023-05-09T13:20:25.827Z,1.20
2023-05-09T13:21:25.290Z,1.40
2023-05-09T13:22:25.262Z,1.30